createdAt,value
2022-12-31T00:00:05.236Z,98.95
2022-12-31T00:02:31.877Z,98.62
2022-12-31T00:04:58.355Z,98.64
2022-12-31T00:07:25.134Z,98.74
2022-12-31T00:09:51.469Z,98.08
2022-12-31T00:12:17.810Z,98.33
2022-12-31T00:14:44.608Z,98.56
2022-12-31T00:17:10.986Z,98.52
2022-12-31T00:19:37.407Z,98.49
2022-12-31T00:22:04.265Z,98.67
2022-12-31T00:24:31.086Z,98.59
2022-12-31T00:26:57.572Z,98.75
2022-12-31T00:29:24.545Z,98.55
2022-12-31T00:31:50.887Z,98.45
2022-12-31T00:34:17.248Z,98.42
2022-12-31T00:36:46.227Z,98.22
2022-12-31T00:39:13.158Z,98.14
2022-12-31T00:41:40.112Z,98.12
2022-12-31T00:44:06.565Z,98.34
2022-12-31T00:46:33.089Z,97.44
2022-12-31T00:49:00.087Z,97.84
2022-12-31T00:51:27.496Z,97.60
2022-12-31T00:53:55.561Z,97.15
2022-12-31T00:56:26.037Z,97.36
2022-12-31T00:58:52.708Z,97.27
2022-12-31T01:01:20.759Z,96.99
2022-12-31T01:03:49.400Z,96.87
2022-12-31T01:06:17.023Z,96.91
2022-12-31T01:08:43.871Z,96.74
2022-12-31T01:11:24.583Z,96.69
2022-12-31T01:13:54.442Z,96.61
2022-12-31T01:16:27.031Z,96.56
2022-12-31T01:18:53.845Z,96.64
2022-12-31T01:21:20.887Z,96.42
2022-12-31T01:23:48.084Z,96.38
2022-12-31T01:26:16.609Z,96.26
2022-12-31T01:28:42.961Z,96.04
2022-12-31T01:31:15.668Z,96.05
2022-12-31T01:33:42.899Z,95.91
2022-12-31T01:36:25.028Z,96.08
2022-12-31T01:38:53.096Z,96.01
2022-12-31T01:41:23.594Z,96.28
2022-12-31T01:43:57.355Z,95.99
2022-12-31T01:46:27.191Z,96.38
2022-12-31T01:48:57.945Z,96.18
2022-12-31T01:51:27.820Z,96.41
2022-12-31T01:53:54.633Z,96.28
2022-12-31T01:56:22.746Z,96.39
2022-12-31T01:58:52.399Z,96.56
2022-12-31T02:01:26.370Z,96.09
2022-12-31T02:03:54.180Z,96.29
2022-12-31T02:06:23.965Z,96.45
2022-12-31T02:08:51.398Z,96.27
2022-12-31T02:11:30.624Z,96.41
2022-12-31T02:14:03.725Z,96.67
2022-12-31T02:16:47.513Z,96.54
2022-12-31T02:19:51.669Z,96.59
2022-12-31T02:22:40.112Z,96.69
2022-12-31T02:25:40.701Z,96.28
2022-12-31T02:28:25.369Z,96.49
2022-12-31T02:31:00.931Z,96.43
2022-12-31T02:33:36.846Z,96.28
2022-12-31T02:36:10.703Z,96.13
2022-12-31T02:38:42.011Z,96.17
2022-12-31T02:41:36.342Z,95.89
2022-12-31T02:44:21.089Z,96.13
2022-12-31T02:47:00.989Z,96.22
2022-12-31T02:49:45.790Z,96.02
2022-12-31T02:52:33.663Z,95.83
2022-12-31T02:55:18.092Z,95.80
2022-12-31T02:58:43.520Z,95.89
2022-12-31T03:01:29.223Z,95.84
2022-12-31T03:04:15.704Z,95.77
2022-12-31T03:06:43.133Z,96.25
2022-12-31T03:09:15.176Z,95.55
2022-12-31T03:12:00.668Z,96.51
2022-12-31T03:14:27.036Z,96.21
2022-12-31T03:16:53.476Z,95.88
2022-12-31T03:19:38.869Z,96.00
2022-12-31T03:22:23.592Z,96.04
2022-12-31T03:25:08.712Z,95.92
2022-12-31T03:27:35.035Z,95.93
2022-12-31T03:30:01.448Z,96.16
2022-12-31T03:32:28.168Z,96.02
2022-12-31T03:34:55.786Z,96.45
2022-12-31T03:37:22.124Z,96.28
2022-12-31T03:39:48.672Z,96.07
2022-12-31T03:42:15.035Z,96.26
2022-12-31T03:44:41.355Z,95.93
2022-12-31T03:47:08.218Z,95.99
2022-12-31T03:49:34.546Z,96.00
2022-12-31T03:52:02.911Z,95.67
2022-12-31T03:54:29.828Z,95.75
2022-12-31T03:57:00.100Z,95.58
2022-12-31T03:59:26.846Z,95.62
2022-12-31T04:01:53.573Z,95.76
2022-12-31T04:04:20.114Z,95.38
2022-12-31T04:06:46.909Z,95.25
2022-12-31T04:09:13.318Z,95.48
2022-12-31T04:11:39.657Z,96.11
2022-12-31T04:14:06.433Z,95.94
2022-12-31T04:16:32.997Z,96.29
2022-12-31T04:18:59.768Z,96.33
2022-12-31T04:21:31.468Z,96.61
2022-12-31T04:24:02.100Z,96.48
2022-12-31T04:26:29.241Z,96.48
2022-12-31T04:28:55.692Z,96.25
2022-12-31T04:31:22.682Z,97.00
2022-12-31T04:33:49.034Z,96.66
2022-12-31T04:36:15.418Z,96.80
2022-12-31T04:38:42.301Z,97.17
2022-12-31T04:41:17.599Z,97.15
2022-12-31T04:43:48.088Z,97.16
2022-12-31T04:46:14.899Z,97.22
2022-12-31T04:48:41.735Z,97.45
2022-12-31T04:51:08.675Z,97.16
2022-12-31T04:53:35.087Z,96.93
2022-12-31T04:56:01.607Z,97.12
2022-12-31T04:58:28.611Z,97.28
2022-12-31T05:00:56.230Z,96.96
2022-12-31T05:03:24.882Z,97.39
2022-12-31T05:05:51.821Z,97.34
2022-12-31T05:08:18.868Z,97.55
2022-12-31T05:10:48.036Z,97.38
2022-12-31T05:13:15.392Z,97.41
2022-12-31T05:15:42.745Z,97.62
2022-12-31T05:18:09.252Z,97.84
2022-12-31T05:20:36.125Z,98.08
2022-12-31T05:23:02.516Z,97.91
2022-12-31T05:25:28.946Z,98.09
2022-12-31T05:27:55.670Z,98.03
2022-12-31T05:30:23.707Z,98.07
2022-12-31T05:32:50.102Z,98.34
2022-12-31T05:35:16.987Z,98.46
2022-12-31T05:37:43.936Z,98.43
2022-12-31T05:40:11.133Z,98.48
2022-12-31T05:42:38.156Z,98.68
2022-12-31T05:45:05.589Z,98.84
2022-12-31T05:47:32.288Z,99.07
2022-12-31T05:49:59.119Z,98.37
2022-12-31T05:52:25.459Z,98.96
2022-12-31T05:54:51.809Z,98.99
2022-12-31T05:57:18.406Z,98.95
2022-12-31T05:59:44.754Z,98.85
2022-12-31T06:02:11.108Z,99.17
2022-12-31T06:04:37.893Z,98.72
2022-12-31T06:07:04.192Z,98.61
2022-12-31T06:09:30.549Z,98.71
2022-12-31T06:11:57.460Z,98.71
2022-12-31T06:14:23.882Z,98.47
2022-12-31T06:16:50.194Z,98.37
2022-12-31T06:19:16.955Z,98.65
2022-12-31T06:21:43.316Z,98.34
2022-12-31T06:24:09.628Z,98.50
2022-12-31T06:26:37.252Z,98.05
2022-12-31T06:29:05.048Z,98.11
2022-12-31T06:31:31.500Z,98.01
2022-12-31T06:33:58.225Z,98.13
2022-12-31T06:36:24.776Z,97.88
2022-12-31T06:38:51.340Z,97.84
2022-12-31T06:41:18.911Z,98.21
2022-12-31T06:43:45.558Z,97.56
2022-12-31T06:46:14.704Z,97.33
2022-12-31T06:48:43.408Z,97.01
2022-12-31T06:51:17.456Z,97.04
2022-12-31T06:53:46.088Z,96.84
2022-12-31T06:56:31.360Z,96.37
2022-12-31T06:59:01.244Z,96.76
2022-12-31T07:01:36.383Z,96.81
2022-12-31T07:04:21.707Z,96.86
2022-12-31T07:06:59.762Z,96.64
2022-12-31T07:10:05.381Z,97.04
2022-12-31T07:12:50.383Z,97.08
2022-12-31T07:15:36.841Z,97.06
2022-12-31T07:18:07.530Z,96.99
2022-12-31T07:20:34.256Z,97.40
2022-12-31T07:23:01.148Z,97.47
2022-12-31T07:25:27.908Z,97.81
2022-12-31T07:28:14.659Z,97.48
2022-12-31T07:31:00.462Z,98.15
2022-12-31T07:33:57.045Z,97.95
2022-12-31T07:36:42.824Z,98.01
2022-12-31T07:39:12.065Z,97.96
2022-12-31T07:41:54.364Z,98.08
2022-12-31T07:44:32.913Z,97.53
2022-12-31T07:47:01.818Z,97.61
2022-12-31T07:49:30.461Z,97.52
2022-12-31T07:51:57.800Z,97.35
2022-12-31T07:54:24.272Z,97.24
2022-12-31T07:56:51.634Z,97.14
2022-12-31T07:59:30.528Z,97.05
2022-12-31T08:02:06.574Z,96.86
2022-12-31T08:04:36.229Z,96.62
2022-12-31T08:07:34.140Z,96.58
2022-12-31T08:10:17.784Z,96.57
2022-12-31T08:12:47.092Z,96.58
2022-12-31T08:15:16.293Z,96.15
2022-12-31T08:17:43.175Z,95.83
2022-12-31T08:20:15.040Z,95.86
2022-12-31T08:22:56.454Z,95.76
2022-12-31T08:25:30.536Z,95.77
2022-12-31T08:28:28.422Z,95.58
2022-12-31T08:31:02.001Z,95.40
2022-12-31T08:34:06.247Z,95.06
2022-12-31T08:36:57.351Z,95.00
2022-12-31T08:39:38.424Z,94.88
2022-12-31T08:42:23.790Z,94.83
2022-12-31T08:45:03.134Z,94.47
2022-12-31T08:47:46.412Z,95.06
2022-12-31T08:50:18.128Z,94.30
2022-12-31T08:52:45.328Z,94.39
2022-12-31T08:55:17.414Z,94.12
2022-12-31T08:58:05.170Z,93.55
2022-12-31T09:00:33.599Z,93.73
2022-12-31T09:03:18.470Z,93.20
2022-12-31T09:06:11.315Z,93.21
2022-12-31T09:09:06.208Z,92.88
2022-12-31T09:12:04.724Z,92.88
2022-12-31T09:14:49.362Z,92.50
2022-12-31T09:17:45.587Z,92.98
2022-12-31T09:20:36.365Z,92.79
2022-12-31T09:23:09.064Z,92.72
2022-12-31T09:25:42.182Z,93.12
2022-12-31T09:28:17.764Z,93.05
2022-12-31T09:31:08.629Z,92.71
2022-12-31T09:34:02.603Z,92.67
2022-12-31T09:36:39.235Z,92.72
2022-12-31T09:39:33.143Z,92.49
2022-12-31T09:42:25.251Z,92.40
2022-12-31T09:45:03.917Z,92.24
2022-12-31T09:47:52.255Z,91.75
2022-12-31T09:50:25.289Z,91.13
2022-12-31T09:52:51.580Z,91.05
2022-12-31T09:55:48.942Z,90.49
2022-12-31T09:58:24.683Z,90.16
2022-12-31T10:01:14.155Z,89.57
2022-12-31T10:04:09.620Z,89.34
2022-12-31T10:06:36.201Z,89.34
2022-12-31T10:09:20.756Z,89.08
2022-12-31T10:12:19.367Z,88.60
2022-12-31T10:15:23.318Z,88.39
2022-12-31T10:18:21.192Z,88.43
2022-12-31T10:20:50.796Z,87.84
2022-12-31T10:23:33.037Z,87.74
2022-12-31T10:26:25.004Z,87.44
2022-12-31T10:28:59.939Z,87.00
2022-12-31T10:31:41.341Z,86.04
2022-12-31T10:34:43.089Z,85.36
2022-12-31T10:37:13.913Z,84.91
2022-12-31T10:40:01.010Z,84.11
2022-12-31T10:43:14.158Z,84.21
2022-12-31T10:45:49.967Z,83.88
2022-12-31T10:48:40.681Z,83.59
2022-12-31T10:51:44.420Z,84.19
2022-12-31T10:54:32.806Z,83.92
2022-12-31T10:57:25.448Z,83.58
2022-12-31T11:00:00.921Z,83.62
2022-12-31T11:02:48.206Z,83.25
2022-12-31T11:05:59.096Z,82.99
2022-12-31T11:09:00.962Z,82.83
2022-12-31T11:11:51.636Z,82.09
2022-12-31T11:14:30.485Z,82.11
2022-12-31T11:17:18.637Z,82.42
2022-12-31T11:20:10.994Z,81.86
2022-12-31T11:22:51.143Z,82.03
2022-12-31T11:25:34.442Z,81.79
2022-12-31T11:28:22.447Z,81.71
2022-12-31T11:31:07.816Z,81.70
2022-12-31T11:33:51.009Z,81.32
2022-12-31T11:36:32.637Z,81.28
2022-12-31T11:39:15.474Z,81.17
2022-12-31T11:42:01.659Z,81.33
2022-12-31T11:44:55.816Z,80.71
2022-12-31T11:48:27.950Z,79.97
2022-12-31T11:50:49.893Z,80.02
2022-12-31T11:53:57.904Z,79.65
2022-12-31T11:56:28.304Z,78.83
2022-12-31T11:58:56.166Z,78.97
2022-12-31T12:02:10.407Z,78.56
2022-12-31T12:04:36.751Z,79.05
2022-12-31T12:07:03.101Z,77.89
2022-12-31T12:09:32.441Z,78.33
2022-12-31T12:12:05.077Z,78.56
2022-12-31T12:14:40.305Z,78.61
2022-12-31T12:17:09.925Z,78.56
2022-12-31T12:19:46.280Z,78.17
2022-12-31T12:22:21.130Z,78.31
2022-12-31T12:24:56.998Z,77.91
2022-12-31T12:27:28.650Z,78.13
2022-12-31T12:29:55.010Z,78.34
2022-12-31T12:32:27.242Z,78.42
2022-12-31T12:34:53.781Z,77.91
2022-12-31T12:37:35.092Z,78.11
2022-12-31T12:40:05.115Z,78.04
2022-12-31T12:42:32.042Z,78.02
2022-12-31T12:45:20.672Z,77.50
2022-12-31T12:47:51.034Z,76.73
2022-12-31T12:50:22.043Z,77.05
2022-12-31T12:53:12.432Z,77.51
2022-12-31T12:55:45.035Z,77.32
2022-12-31T12:58:36.477Z,77.03
2022-12-31T13:01:26.369Z,76.73
2022-12-31T13:04:33.850Z,76.24
2022-12-31T13:07:26.241Z,77.41
2022-12-31T13:10:06.919Z,77.77
2022-12-31T13:13:22.151Z,77.40
2022-12-31T13:16:14.249Z,77.11
2022-12-31T13:19:05.313Z,77.48
2022-12-31T13:21:41.915Z,77.48
2022-12-31T13:24:31.385Z,77.26
2022-12-31T13:27:08.518Z,77.22
2022-12-31T13:29:36.140Z,77.65
2022-12-31T13:32:05.602Z,77.66
2022-12-31T13:34:38.058Z,77.92
2022-12-31T13:37:27.188Z,78.41
2022-12-31T13:40:01.881Z,78.32
2022-12-31T13:42:32.579Z,78.74
2022-12-31T13:45:25.588Z,78.77
2022-12-31T13:48:06.966Z,78.95
2022-12-31T13:50:43.333Z,79.44
2022-12-31T13:53:27.570Z,79.50
2022-12-31T13:56:06.240Z,79.61
2022-12-31T13:58:45.419Z,80.08
2022-12-31T14:01:32.061Z,80.07
2022-12-31T14:04:04.636Z,80.03
2022-12-31T14:06:47.258Z,80.53
2022-12-31T14:09:21.898Z,80.86
2022-12-31T14:11:55.146Z,80.74
2022-12-31T14:14:48.800Z,81.06
2022-12-31T14:17:39.593Z,81.15
2022-12-31T14:20:44.524Z,81.31
2022-12-31T14:23:17.074Z,81.65
2022-12-31T14:26:27.767Z,81.78
2022-12-31T14:29:06.716Z,82.29
2022-12-31T14:31:51.717Z,82.40
2022-12-31T14:34:47.768Z,82.72
2022-12-31T14:37:32.840Z,82.69
2022-12-31T14:40:18.512Z,82.80
2022-12-31T14:43:00.813Z,83.06
2022-12-31T14:45:56.070Z,82.97
2022-12-31T14:48:29.186Z,82.80
2022-12-31T14:50:59.098Z,82.74
2022-12-31T14:53:27.345Z,83.34
2022-12-31T14:56:02.884Z,83.55
2022-12-31T14:58:42.394Z,83.56
2022-12-31T15:01:15.466Z,83.66
2022-12-31T15:03:45.723Z,84.21
2022-12-31T15:06:12.528Z,84.32
2022-12-31T15:09:02.455Z,84.89
2022-12-31T15:11:58.759Z,85.24
2022-12-31T15:14:38.093Z,85.87
2022-12-31T15:17:13.955Z,86.39
2022-12-31T15:19:58.968Z,87.00
2022-12-31T15:22:34.338Z,87.52
2022-12-31T15:25:01.578Z,88.06
2022-12-31T15:27:35.788Z,88.50
2022-12-31T15:30:04.676Z,88.53
2022-12-31T15:32:41.330Z,88.69
2022-12-31T15:35:23.381Z,89.12
2022-12-31T15:38:16.872Z,89.55
2022-12-31T15:40:46.264Z,89.88
2022-12-31T15:43:24.902Z,89.91
2022-12-31T15:45:54.326Z,90.15
2022-12-31T15:49:01.990Z,90.10
2022-12-31T15:51:37.342Z,90.87
2022-12-31T15:54:05.165Z,91.16
2022-12-31T15:56:34.653Z,91.86
2022-12-31T15:59:05.068Z,91.77
2022-12-31T16:01:36.588Z,91.52
2022-12-31T16:04:14.964Z,91.90
2022-12-31T16:06:44.929Z,91.81
2022-12-31T16:09:22.543Z,91.85
2022-12-31T16:11:50.005Z,91.87
2022-12-31T16:14:34.629Z,92.01
2022-12-31T16:17:01.695Z,91.93
2022-12-31T16:19:34.951Z,92.04
2022-12-31T16:22:08.179Z,92.22
2022-12-31T16:24:49.012Z,92.26
2022-12-31T16:27:22.838Z,92.42
2022-12-31T16:29:57.590Z,92.28
2022-12-31T16:32:23.836Z,92.47
2022-12-31T16:34:50.199Z,92.78
2022-12-31T16:37:21.819Z,93.23
2022-12-31T16:39:56.955Z,93.39
2022-12-31T16:42:25.161Z,93.74
2022-12-31T16:44:53.703Z,93.84
2022-12-31T16:47:27.587Z,93.88
2022-12-31T16:50:05.308Z,93.88
2022-12-31T16:52:40.909Z,93.73
2022-12-31T16:55:10.172Z,93.68
2022-12-31T16:57:37.153Z,93.65
2022-12-31T17:00:07.341Z,93.67
2022-12-31T17:02:39.187Z,93.86
2022-12-31T17:05:19.387Z,93.62
2022-12-31T17:07:45.716Z,94.02
2022-12-31T17:10:19.360Z,93.91
2022-12-31T17:13:27.391Z,93.69
2022-12-31T17:15:43.316Z,93.62
2022-12-31T17:18:20.491Z,93.44
2022-12-31T17:20:50.160Z,93.52
2022-12-31T17:23:28.967Z,93.40
2022-12-31T17:26:09.711Z,93.19
2022-12-31T17:28:44.865Z,93.67
2022-12-31T17:31:37.830Z,93.68
2022-12-31T17:34:12.102Z,94.10
2022-12-31T17:36:40.624Z,94.17
2022-12-31T17:39:22.855Z,94.01
2022-12-31T17:41:51.512Z,94.18
2022-12-31T17:44:24.224Z,94.20
2022-12-31T17:46:51.271Z,94.48
2022-12-31T17:49:21.684Z,94.37
2022-12-31T17:51:48.420Z,94.52
2022-12-31T17:54:16.127Z,94.60
2022-12-31T17:56:44.036Z,94.63
2022-12-31T17:59:16.566Z,94.59
2022-12-31T18:01:43.138Z,94.61
2022-12-31T18:04:14.539Z,94.61
2022-12-31T18:06:41.838Z,94.64
2022-12-31T18:09:08.380Z,94.72
2022-12-31T18:11:36.393Z,94.75
2022-12-31T18:14:03.766Z,95.09
2022-12-31T18:16:30.419Z,95.03
2022-12-31T18:18:59.227Z,94.95
2022-12-31T18:21:32.834Z,95.25
2022-12-31T18:26:26.774Z,95.35
2022-12-31T18:28:53.614Z,95.37
2022-12-31T18:31:23.227Z,95.23
2022-12-31T18:33:51.320Z,95.47
2022-12-31T18:36:19.529Z,95.47
2022-12-31T18:38:46.214Z,95.58
2022-12-31T18:41:23.421Z,95.80
2022-12-31T18:43:50.758Z,96.27
2022-12-31T18:46:19.973Z,95.92
2022-12-31T18:48:46.832Z,96.04
2022-12-31T18:51:18.692Z,96.19
2022-12-31T18:53:45.575Z,96.12
2022-12-31T18:56:14.324Z,96.07
2022-12-31T18:58:41.593Z,96.25
2022-12-31T19:01:35.302Z,96.05
2022-12-31T19:04:04.555Z,96.19
2022-12-31T19:06:31.072Z,96.18
2022-12-31T19:08:59.169Z,96.08
2022-12-31T19:11:27.334Z,96.04
2022-12-31T19:13:53.660Z,95.56
2022-12-31T19:16:20.510Z,96.06
2022-12-31T19:18:47.511Z,96.08
2022-12-31T19:21:18.974Z,95.86
2022-12-31T19:23:46.136Z,95.91
2022-12-31T19:26:15.732Z,95.86
2022-12-31T19:28:42.952Z,96.17
2022-12-31T19:31:09.670Z,95.97
2022-12-31T19:33:36.436Z,96.11
2022-12-31T19:36:03.146Z,96.23
2022-12-31T19:38:31.980Z,96.03
2022-12-31T19:40:59.455Z,95.86
2022-12-31T19:43:25.891Z,96.40
2022-12-31T19:45:53.146Z,96.36
2022-12-31T19:48:25.800Z,96.44
2022-12-31T19:50:56.757Z,96.44
2022-12-31T19:53:26.329Z,96.29
2022-12-31T19:55:53.556Z,95.93
2022-12-31T19:58:22.393Z,96.05
2022-12-31T20:00:54.804Z,96.59
2022-12-31T20:03:23.637Z,96.68
2022-12-31T20:05:50.679Z,96.49
2022-12-31T20:08:20.125Z,97.01
2022-12-31T20:10:46.519Z,96.41
2022-12-31T20:13:13.398Z,96.76
2022-12-31T20:15:40.311Z,97.16
2022-12-31T20:18:06.644Z,97.43
2022-12-31T20:20:33.432Z,97.65
2022-12-31T20:22:59.860Z,97.40
2022-12-31T20:25:26.286Z,97.35
2022-12-31T20:27:54.627Z,97.81
2022-12-31T20:30:22.835Z,97.42
2022-12-31T20:32:51.977Z,97.59
2022-12-31T20:35:19.392Z,97.48
2022-12-31T20:37:46.032Z,98.28
2022-12-31T20:40:12.861Z,97.65
2022-12-31T20:42:40.865Z,97.33
2022-12-31T20:45:09.175Z,97.90
2022-12-31T20:47:35.812Z,98.05
2022-12-31T20:50:17.801Z,97.99
2022-12-31T20:52:44.856Z,97.48
2022-12-31T20:55:13.750Z,97.97
2022-12-31T20:57:40.723Z,97.42
2022-12-31T21:00:08.359Z,97.79
2022-12-31T21:02:42.275Z,98.08
2022-12-31T21:05:10.152Z,98.24
2022-12-31T21:07:36.588Z,98.23
2022-12-31T21:10:03.327Z,98.34
2022-12-31T21:12:55.886Z,98.70
2022-12-31T21:15:22.276Z,98.32
2022-12-31T21:17:48.630Z,99.31
2022-12-31T21:20:15.419Z,99.63
2022-12-31T21:22:41.802Z,98.94
2022-12-31T21:25:10.113Z,98.87
2022-12-31T21:27:36.488Z,98.76
2022-12-31T21:30:19.807Z,99.32
2022-12-31T21:32:47.012Z,98.94
2022-12-31T21:38:05.076Z,99.65
2022-12-31T21:40:32.034Z,100.00
2022-12-31T21:42:59.625Z,99.81
2022-12-31T21:45:26.499Z,99.54
2022-12-31T21:48:11.180Z,100.00
2022-12-31T21:50:37.994Z,99.97
2022-12-31T21:53:04.362Z,100.00
2022-12-31T21:55:49.712Z,100.00
2022-12-31T21:58:31.982Z,100.00
2022-12-31T22:01:18.592Z,100.00
2022-12-31T22:03:45.338Z,100.00
2022-12-31T22:06:22.302Z,100.00
2022-12-31T22:08:55.009Z,100.00
2022-12-31T22:11:24.230Z,100.00
2022-12-31T22:13:51.417Z,99.92
2022-12-31T22:16:20.304Z,100.00
2022-12-31T22:18:47.997Z,99.75
2022-12-31T22:21:21.277Z,99.95
2022-12-31T22:23:50.163Z,100.00
2022-12-31T22:26:18.923Z,100.00
2022-12-31T22:28:46.499Z,99.81
2022-12-31T22:31:15.492Z,100.00
2022-12-31T22:33:42.394Z,100.00
2022-12-31T22:36:12.928Z,100.00
2022-12-31T22:38:39.299Z,99.63
2022-12-31T22:41:06.925Z,99.70
2022-12-31T22:43:36.197Z,99.54
2022-12-31T22:46:26.268Z,100.00
2022-12-31T22:48:56.892Z,99.35
2022-12-31T22:51:23.236Z,99.27
2022-12-31T22:53:49.568Z,99.13
2022-12-31T22:56:19.060Z,99.07
2022-12-31T22:58:46.077Z,99.30
2022-12-31T23:01:19.820Z,98.92
2022-12-31T23:03:47.276Z,98.88
2022-12-31T23:06:14.049Z,98.65
2022-12-31T23:08:41.085Z,98.56
2022-12-31T23:11:09.551Z,99.44
2022-12-31T23:13:59.143Z,99.07
2022-12-31T23:16:45.935Z,98.78
2022-12-31T23:19:31.609Z,99.78
2022-12-31T23:22:16.737Z,99.35
2022-12-31T23:24:43.661Z,99.17
2022-12-31T23:27:11.203Z,98.97
2022-12-31T23:29:46.685Z,99.50
2022-12-31T23:32:18.424Z,99.31
2022-12-31T23:34:46.980Z,99.80
2022-12-31T23:37:15.038Z,99.74
2022-12-31T23:39:42.525Z,99.99
2022-12-31T23:42:08.900Z,100.00
2022-12-31T23:44:35.264Z,100.00
2022-12-31T23:47:01.970Z,100.00
2022-12-31T23:49:28.304Z,100.00
2022-12-31T23:51:54.652Z,99.83
2022-12-31T23:54:21.405Z,99.75
2022-12-31T23:56:47.760Z,100.00
2022-12-31T23:59:14.082Z,100.00
